Time;durP1;ratioP1;P1;durP2;ratioP2;P2;SDS_P1;SDS_P2;PMS_P1;PMS_P2;Temp;Humidity;BMP_temperature;BMP_pressure;BME280_temperature;BME280_humidity;BME280_pressure;Samples;Min_cycle;Max_cycle;Signal;HPM_P1;HPM_P2
2022/01/07 00:02:24;;;;;;;0.60;0.40;;;3.70;1.00;;;;;;5110845;28;20698;-80
2022/01/07 00:04:52;;;;;;;0.50;0.10;;;3.60;1.00;;;;;;5118970;28;20458;-82
2022/01/07 00:07:20;;;;;;;0.50;0.10;;;3.60;1.00;;;;;;5115366;28;20435;-81
2022/01/07 00:09:48;;;;;;;0.50;0.10;;;4.10;1.00;;;;;;5117168;28;20514;-83
2022/01/07 00:12:19;;;;;;;0.50;0.10;;;3.70;1.00;;;;;;5116874;28;20484;-82
2022/01/07 00:14:47;;;;;;;0.50;0.10;;;3.60;1.00;;;;;;5118602;28;20476;-79
2022/01/07 00:17:16;;;;;;;0.50;0.10;;;3.60;1.00;;;;;;5114283;28;20505;-79
2022/01/07 00:19:45;;;;;;;0.50;0.10;;;3.60;1.00;;;;;;5112586;28;20550;-80
2022/01/07 00:22:14;;;;;;;0.50;0.10;;;;;;;;;;5112251;28;20474;-80
2022/01/07 00:24:42;;;;;;;0.80;0.63;;;3.60;1.00;;;;;;5104445;28;20456;-81
2022/01/07 00:27:10;;;;;;;0.50;0.20;;;3.60;1.00;;;;;;5101214;28;20619;-80
2022/01/07 00:29:51;;;;;;;0.50;0.10;;;3.70;1.00;;;;;;5104101;28;20458;-80
2022/01/07 00:32:19;;;;;;;0.50;0.20;;;3.70;1.00;;;;;;5105905;28;20479;-80
2022/01/07 00:34:49;;;;;;;0.50;0.10;;;3.80;1.00;;;;;;5115106;28;20452;-81
2022/01/07 00:37:17;;;;;;;0.50;0.20;;;;;;;;;;5116624;28;20476;-81
2022/01/07 00:39:45;;;;;;;0.50;0.10;;;3.80;1.00;;;;;;5111614;28;20514;-81
2022/01/07 00:42:14;;;;;;;0.50;0.10;;;;;;;;;;5124571;28;20537;-83
2022/01/07 00:44:42;;;;;;;0.50;0.10;;;3.80;1.00;;;;;;5131276;28;20530;-82
2022/01/07 00:47:10;;;;;;;1.90;1.80;;;3.80;1.00;;;;;;5137553;28;20446;-82
2022/01/07 00:49:38;;;;;;;0.70;0.40;;;3.70;1.00;;;;;;5136858;28;20441;-81
2022/01/07 00:52:08;;;;;;;3.20;3.07;;;3.60;1.00;;;;;;5134527;28;20541;-81
2022/01/07 00:54:37;;;;;;;0.50;0.10;;;3.60;1.00;;;;;;5129595;28;20437;-81
2022/01/07 00:57:05;;;;;;;0.93;0.93;;;3.60;1.00;;;;;;5126773;28;20475;-81
2022/01/07 00:59:33;;;;;;;2.80;2.63;;;3.60;1.00;;;;;;5130564;28;20467;-81
2022/01/07 01:02:02;;;;;;;0.50;0.20;;;3.60;1.00;;;;;;5134902;28;20467;-83
2022/01/07 01:04:42;;;;;;;0.50;0.10;;;3.60;1.00;;;;;;5134938;28;20418;-80
2022/01/07 01:07:16;;;;;;;0.50;0.10;;;3.50;1.00;;;;;;5117529;28;20442;-81
2022/01/07 01:09:44;;;;;;;0.80;0.67;;;3.50;1.00;;;;;;5114702;28;20458;-81
2022/01/07 01:12:13;;;;;;;0.70;0.40;;;3.50;1.00;;;;;;5114725;28;20541;-81
2022/01/07 01:14:41;;;;;;;0.50;0.10;;;3.40;1.00;;;;;;5124637;28;20520;-79
2022/01/07 01:17:27;;;;;;;4.53;2.10;;;3.30;1.00;;;;;;5132404;28;20445;-80
2022/01/07 01:19:55;;;;;;;0.50;0.10;;;3.30;1.00;;;;;;5125360;28;20732;-79
2022/01/07 01:22:24;;;;;;;3.27;0.73;;;3.20;1.00;;;;;;5133061;28;20583;-83
2022/01/07 01:24:53;;;;;;;0.50;0.10;;;3.20;1.00;;;;;;5130654;28;20513;-81
2022/01/07 01:27:20;;;;;;;0.50;0.10;;;3.30;1.00;;;;;;5131122;28;20480;-79
2022/01/07 01:29:49;;;;;;;0.50;0.10;;;3.30;1.00;;;;;;5130972;28;20445;-82
2022/01/07 01:32:17;;;;;;;2.00;1.87;;;3.40;1.00;;;;;;5112819;28;20549;-81
2022/01/07 01:34:45;;;;;;;0.60;0.40;;;;;;;;;;5105130;28;20473;-81
2022/01/07 01:37:13;;;;;;;0.60;0.37;;;3.40;1.00;;;;;;5105888;28;20970;-81
2022/01/07 01:39:43;;;;;;;0.50;0.10;;;;;;;;;;5106408;28;20837;-81
2022/01/07 01:42:11;;;;;;;0.70;0.33;;;3.30;1.00;;;;;;5113279;28;20472;-82
2022/01/07 01:44:39;;;;;;;0.50;0.10;;;3.40;1.00;;;;;;5117727;28;20449;-81
2022/01/07 01:47:07;;;;;;;9.63;8.90;;;3.40;1.00;;;;;;5125130;28;20478;-81
2022/01/07 01:49:35;;;;;;;0.50;0.10;;;3.40;1.00;;;;;;5119102;28;20445;-80
2022/01/07 01:52:04;;;;;;;0.50;0.10;;;3.40;1.00;;;;;;5115602;28;20457;-80
2022/01/07 01:54:32;;;;;;;0.50;0.10;;;3.40;1.00;;;;;;5106699;28;20476;-81
2022/01/07 01:57:01;;;;;;;0.50;0.10;;;;;;;;;;5106775;28;20477;-81
2022/01/07 01:59:32;;;;;;;0.50;0.10;;;3.40;1.00;;;;;;5106003;28;20480;-81
2022/01/07 02:02:00;;;;;;;0.50;0.13;;;3.40;1.00;;;;;;5103847;28;20473;-80
2022/01/07 02:04:28;;;;;;;0.50;0.10;;;3.40;1.00;;;;;;5115481;28;20455;-80
2022/01/07 02:06:56;;;;;;;0.50;0.10;;;3.40;1.00;;;;;;5105180;28;20448;-79
2022/01/07 02:09:31;;;;;;;0.50;0.10;;;3.40;1.00;;;;;;5100043;28;20454;-80
2022/01/07 02:12:01;;;;;;;0.50;0.20;;;3.50;1.00;;;;;;5103553;28;20560;-81
2022/01/07 02:14:30;;;;;;;0.50;0.10;;;3.50;1.00;;;;;;5112648;28;20449;-81
2022/01/07 02:17:05;;;;;;;0.50;0.10;;;3.50;1.00;;;;;;5123092;28;20477;-80
2022/01/07 02:19:35;;;;;;;0.50;0.10;;;3.60;1.00;;;;;;5113361;28;20496;-81
2022/01/07 02:22:04;;;;;;;0.50;0.10;;;3.60;1.00;;;;;;5121845;28;20452;-80
2022/01/07 02:24:34;;;;;;;0.50;0.10;;;3.60;1.00;;;;;;5119512;28;20442;-80
2022/01/07 02:27:03;;;;;;;0.50;0.10;;;3.70;1.00;;;;;;5121000;28;20440;-80
2022/01/07 02:29:31;;;;;;;0.50;0.10;;;3.70;1.00;;;;;;5122624;28;20926;-80
2022/01/07 02:31:59;;;;;;;0.50;0.10;;;3.70;1.00;;;;;;5084063;28;20481;-80
2022/01/07 02:34:27;;;;;;;0.50;0.10;;;3.70;1.00;;;;;;5097196;28;20452;-80
2022/01/07 02:36:56;;;;;;;0.50;0.10;;;;;;;;;;5101862;28;20947;-81
2022/01/07 02:39:25;;;;;;;0.50;0.10;;;3.60;1.00;;;;;;5105194;28;20844;-82
2022/01/07 02:41:53;;;;;;;0.50;0.20;;;3.50;1.00;;;;;;5102404;28;20466;-81
2022/01/07 02:44:21;;;;;;;0.60;0.27;;;3.40;1.00;;;;;;5102276;28;20478;-79
2022/01/07 02:46:49;;;;;;;0.50;0.10;;;3.40;1.00;;;;;;5123723;28;20478;-81
2022/01/07 02:49:19;;;;;;;0.50;0.17;;;3.20;1.00;;;;;;5123545;28;20434;-79
2022/01/07 02:51:48;;;;;;;1.60;1.50;;;3.10;1.00;;;;;;5102331;28;20485;-81
2022/01/07 02:54:17;;;;;;;0.50;0.10;;;;;;;;;;5115879;28;20794;-81
2022/01/07 02:56:45;;;;;;;0.50;0.10;;;3.10;1.00;;;;;;5134143;28;20452;-82
2022/01/07 02:59:13;;;;;;;0.50;0.10;;;3.10;1.00;;;;;;5126276;28;20539;-80
2022/01/07 03:01:41;;;;;;;0.50;0.10;;;3.00;1.00;;;;;;5108856;28;20471;-79
2022/01/07 03:04:09;;;;;;;0.50;0.10;;;3.10;1.00;;;;;;5106286;28;20490;-80
2022/01/07 03:06:38;;;;;;;0.50;0.10;;;3.10;1.00;;;;;;5109302;28;20522;-81
2022/01/07 03:09:06;;;;;;;1.63;0.90;;;3.00;1.00;;;;;;5112727;28;21033;-81
2022/01/07 03:11:36;;;;;;;0.70;0.70;;;3.00;1.00;;;;;;5117194;28;20468;-82
2022/01/07 03:14:04;;;;;;;0.50;0.10;;;3.10;1.00;;;;;;5107736;28;20933;-82
2022/01/07 03:16:32;;;;;;;0.50;0.30;;;3.10;1.00;;;;;;5119397;28;20459;-82
2022/01/07 03:19:01;;;;;;;0.70;0.40;;;3.10;1.00;;;;;;5113277;28;20493;-81
2022/01/07 03:21:29;;;;;;;0.50;0.10;;;3.10;1.00;;;;;;5103892;28;20532;-82
2022/01/07 03:23:57;;;;;;;0.80;0.80;;;3.10;1.00;;;;;;5110753;28;20436;-82
2022/01/07 03:26:25;;;;;;;0.50;0.10;;;;;;;;;;5120693;28;20512;-81
2022/01/07 03:28:54;;;;;;;0.50;0.10;;;3.10;1.00;;;;;;5118920;28;20447;-81
2022/01/07 03:31:22;;;;;;;0.50;0.10;;;3.10;1.00;;;;;;5117941;22;20519;-73
2022/01/07 03:33:50;;;;;;;0.50;0.10;;;3.10;1.00;;;;;;5106982;28;20491;-72
2022/01/07 03:36:18;;;;;;;0.50;0.10;;;3.10;1.00;;;;;;5091769;28;20456;-71
2022/01/07 03:38:46;;;;;;;0.50;0.10;;;3.10;1.00;;;;;;5096788;28;20862;-72
2022/01/07 03:41:14;;;;;;;0.50;0.20;;;3.20;1.00;;;;;;5111468;28;20481;-71
2022/01/07 03:43:42;;;;;;;0.50;0.10;;;3.20;1.00;;;;;;5107440;28;20442;-72
2022/01/07 03:46:11;;;;;;;8.53;1.43;;;3.20;1.00;;;;;;5091643;28;20449;-72
2022/01/07 03:48:39;;;;;;;0.50;0.10;;;3.20;1.00;;;;;;5091901;28;20441;-72
2022/01/07 03:51:07;;;;;;;0.50;0.10;;;3.20;1.00;;;;;;5105386;28;20460;-73
2022/01/07 03:53:35;;;;;;;0.50;0.17;;;3.30;1.00;;;;;;5105235;28;20952;-71
2022/01/07 03:56:03;;;;;;;0.50;0.10;;;3.30;1.00;;;;;;5091121;28;20452;-71
2022/01/07 03:58:31;;;;;;;0.50;0.10;;;;;;;;;;5091716;28;20795;-72
2022/01/07 04:00:59;;;;;;;0.50;0.10;;;3.30;1.00;;;;;;5091316;28;20987;-72
2022/01/07 04:03:29;;;;;;;0.50;0.10;;;3.40;1.00;;;;;;5096043;28;20441;-72
2022/01/07 04:05:57;;;;;;;0.50;0.10;;;3.30;1.00;;;;;;5111426;28;20451;-72
2022/01/07 04:08:25;;;;;;;0.50;0.10;;;3.40;1.00;;;;;;5112290;28;20449;-72
2022/01/07 04:10:52;;;;;;;0.50;0.10;;;3.40;1.00;;;;;;5111680;28;20469;-72
2022/01/07 04:13:20;;;;;;;0.50;0.10;;;3.40;1.00;;;;;;5106029;28;20451;-73
2022/01/07 04:15:48;;;;;;;0.50;0.10;;;3.40;1.00;;;;;;5104045;28;20452;-74
2022/01/07 04:18:16;;;;;;;1.07;0.97;;;3.40;1.00;;;;;;5115698;28;20441;-72
2022/01/07 04:20:45;;;;;;;0.50;0.10;;;3.40;1.00;;;;;;5115125;28;20486;-72
2022/01/07 04:23:14;;;;;;;0.50;0.10;;;3.40;1.00;;;;;;5113734;28;20440;-72
2022/01/07 04:25:43;;;;;;;0.50;0.10;;;3.30;1.00;;;;;;5095646;28;20533;-72
2022/01/07 04:28:11;;;;;;;1.07;0.97;;;3.30;1.00;;;;;;5095493;28;20452;-72
2022/01/07 04:30:41;;;;;;;0.50;0.10;;;3.30;1.00;;;;;;5096304;28;20449;-73
2022/01/07 04:33:13;;;;;;;0.50;0.10;;;3.20;1.00;;;;;;5091921;28;20467;-72
2022/01/07 04:35:42;;;;;;;0.50;0.10;;;3.30;1.00;;;;;;5115133;28;20449;-73
2022/01/07 04:38:11;;;;;;;0.50;0.10;;;3.20;1.00;;;;;;5114948;28;20455;-73
2022/01/07 04:40:39;;;;;;;0.50;0.10;;;3.20;1.00;;;;;;5114718;28;20475;-72
2022/01/07 04:43:08;;;;;;;0.50;0.10;;;3.10;1.00;;;;;;5112907;28;20458;-72
2022/01/07 04:45:36;;;;;;;0.50;0.10;;;3.20;1.00;;;;;;5094354;28;20448;-72
2022/01/07 04:48:05;;;;;;;0.50;0.10;;;3.20;1.00;;;;;;5094327;28;20456;-71
2022/01/07 04:50:33;;;;;;;0.50;0.10;;;3.20;1.00;;;;;;5094378;28;20996;-72
2022/01/07 04:53:02;;;;;;;0.50;0.10;;;3.30;1.00;;;;;;5094372;28;20464;-72
2022/01/07 04:55:36;;;;;;;0.50;0.10;;;3.30;1.00;;;;;;5083092;28;20981;-72
2022/01/07 04:58:06;;;;;;;0.50;0.10;;;3.30;1.00;;;;;;5094220;28;20796;-72
2022/01/07 05:00:34;;;;;;;0.50;0.10;;;3.30;1.00;;;;;;5094082;28;20476;-73
2022/01/07 05:03:02;;;;;;;0.97;0.87;;;3.30;1.00;;;;;;5094040;28;21031;-74
2022/01/07 05:05:30;;;;;;;2.07;1.03;;;3.30;1.00;;;;;;5083054;28;20987;-73
2022/01/07 05:07:58;;;;;;;0.50;0.13;;;3.30;1.00;;;;;;5094027;28;20474;-72
2022/01/07 05:10:26;;;;;;;0.50;0.10;;;;;;;;;;5094594;28;20438;-72
2022/01/07 05:12:56;;;;;;;0.50;0.10;;;3.40;1.00;;;;;;5095217;28;20471;-72
2022/01/07 05:15:24;;;;;;;0.60;0.57;;;3.40;1.00;;;;;;5112718;28;20452;-73
2022/01/07 05:17:52;;;;;;;0.50;0.10;;;3.40;1.00;;;;;;5114472;28;20439;-73
2022/01/07 05:20:21;;;;;;;0.50;0.10;;;3.30;1.00;;;;;;5113611;28;20527;-73
2022/01/07 05:22:49;;;;;;;0.50;0.10;;;3.30;1.00;;;;;;5114032;28;20482;-73
2022/01/07 05:25:17;;;;;;;0.50;0.20;;;3.30;1.00;;;;;;5095647;28;20451;-72
2022/01/07 05:27:45;;;;;;;0.50;0.10;;;3.30;1.00;;;;;;5093128;28;20935;-73
2022/01/07 05:30:15;;;;;;;1.10;0.93;;;3.20;1.00;;;;;;5094741;28;20941;-72
2022/01/07 05:32:43;;;;;;;0.50;0.20;;;3.30;1.00;;;;;;5093635;28;20469;-73
2022/01/07 05:35:11;;;;;;;0.50;0.10;;;3.30;1.00;;;;;;5110412;28;20987;-72
2022/01/07 05:37:39;;;;;;;0.50;0.10;;;3.30;1.00;;;;;;5114118;28;20797;-73
2022/01/07 05:40:09;;;;;;;0.50;0.10;;;3.30;1.00;;;;;;5107378;28;20987;-73
2022/01/07 05:42:37;;;;;;;1.03;0.87;;;3.30;1.00;;;;;;5105960;28;20479;-76
2022/01/07 05:45:05;;;;;;;2.20;1.50;;;3.30;1.00;;;;;;5097751;28;20456;-71
2022/01/07 05:47:34;;;;;;;0.50;0.10;;;3.30;1.00;;;;;;5093653;28;20436;-75
2022/01/07 05:50:03;;;;;;;2.07;1.40;;;3.30;1.00;;;;;;5100555;28;20507;-71
2022/01/07 05:52:31;;;;;;;2.90;1.07;;;3.20;1.00;;;;;;5113202;28;20463;-72
2022/01/07 05:54:59;;;;;;;0.50;0.10;;;3.20;1.00;;;;;;5097824;28;20963;-75
2022/01/07 05:57:27;;;;;;;5.40;3.00;;;3.20;1.00;;;;;;5093420;28;20436;-72
2022/01/07 05:59:55;;;;;;;0.50;0.10;;;3.20;1.00;;;;;;5096955;28;20472;-73
2022/01/07 06:02:23;;;;;;;0.60;0.50;;;3.20;1.00;;;;;;5113228;28;20468;-74
2022/01/07 06:04:53;;;;;;;0.80;0.67;;;3.20;1.00;;;;;;5099284;28;20453;-72
2022/01/07 06:07:21;;;;;;;0.50;0.10;;;3.20;1.00;;;;;;5092636;28;20529;-72
2022/01/07 06:09:49;;;;;;;0.90;0.77;;;3.10;1.00;;;;;;5093042;28;20474;-72
2022/01/07 06:12:17;;;;;;;1.23;1.13;;;3.20;1.00;;;;;;5092712;28;20804;-72
2022/01/07 06:14:44;;;;;;;0.50;0.10;;;3.10;1.00;;;;;;5093638;28;20454;-72
2022/01/07 06:17:12;;;;;;;9.83;2.17;;;3.10;1.00;;;;;;5092515;28;20448;-72
2022/01/07 06:19:40;;;;;;;0.70;0.70;;;3.20;1.00;;;;;;5092310;28;20645;-72
2022/01/07 06:22:11;;;;;;;0.50;0.10;;;3.30;1.00;;;;;;5092289;28;20461;-73
2022/01/07 06:24:39;;;;;;;2.73;2.00;;;3.30;1.00;;;;;;5092061;28;20450;-71
2022/01/07 06:27:07;;;;;;;3.13;0.97;;;3.30;1.00;;;;;;5092421;28;20945;-73
2022/01/07 06:29:35;;;;;;;1.33;0.93;;;3.30;1.00;;;;;;5094487;28;20490;-73
2022/01/07 06:32:05;;;;;;;10.07;5.60;;;3.30;1.00;;;;;;5112294;28;20548;-75
2022/01/07 06:34:33;;;;;;;0.50;0.20;;;3.20;1.00;;;;;;5102298;28;20444;-72
2022/01/07 06:37:01;;;;;;;0.50;0.10;;;3.10;1.00;;;;;;5092591;28;20877;-72
2022/01/07 06:39:32;;;;;;;0.60;0.33;;;3.20;1.00;;;;;;5092566;28;20453;-73
2022/01/07 06:42:01;;;;;;;12.53;11.53;;;3.20;1.00;;;;;;5112886;28;20484;-73
2022/01/07 06:44:29;;;;;;;0.60;0.20;;;;;;;;;;5102779;28;20442;-73
2022/01/07 06:46:57;;;;;;;0.50;0.20;;;3.20;1.00;;;;;;5092249;28;20451;-73
2022/01/07 06:49:25;;;;;;;0.60;0.57;;;3.20;1.00;;;;;;5092531;28;20454;-73
2022/01/07 06:51:54;;;;;;;0.60;0.40;;;3.20;1.00;;;;;;5092346;28;20462;-73
2022/01/07 06:54:21;;;;;;;1.03;0.87;;;3.20;1.00;;;;;;5100089;28;20451;-72
2022/01/07 06:56:51;;;;;;;0.50;0.20;;;3.20;1.00;;;;;;5112316;28;20455;-73
2022/01/07 06:59:18;;;;;;;0.70;0.20;;;3.20;1.00;;;;;;5112689;28;20438;-74
2022/01/07 07:01:48;;;;;;;1.63;1.53;;;3.10;1.00;;;;;;5112156;28;20488;-73
2022/01/07 07:04:16;;;;;;;0.60;0.30;;;3.20;1.00;;;;;;5110758;28;20463;-72
2022/01/07 07:06:45;;;;;;;0.50;0.10;;;3.20;1.00;;;;;;5101592;28;20459;-73
2022/01/07 07:09:13;;;;;;;0.50;0.10;;;3.30;1.00;;;;;;5103023;28;20764;-73
2022/01/07 07:11:43;;;;;;;0.50;0.10;;;3.30;1.00;;;;;;5111495;28;20463;-73
2022/01/07 07:14:12;;;;;;;0.50;0.10;;;3.30;1.00;;;;;;5104471;28;20459;-75
2022/01/07 07:16:41;;;;;;;1.53;1.43;;;3.30;1.00;;;;;;5092196;28;20440;-73
2022/01/07 07:19:08;;;;;;;1.37;1.37;;;3.20;1.00;;;;;;5101784;28;20539;-73
2022/01/07 07:21:37;;;;;;;0.77;0.70;;;;;;;;;;5112120;28;20480;-73
2022/01/07 07:24:06;;;;;;;1.20;0.60;;;3.20;1.00;;;;;;5111529;28;20934;-72
2022/01/07 07:26:34;;;;;;;0.50;0.20;;;;;;;;;;5094293;28;20445;-74
2022/01/07 07:29:02;;;;;;;0.50;0.20;;;3.20;1.00;;;;;;5098871;28;20513;-75
2022/01/07 07:31:32;;;;;;;0.50;0.20;;;3.20;1.00;;;;;;5111650;28;20513;-75
2022/01/07 07:36:51;;;;;;;0.50;0.20;;;3.10;1.00;;;;;;5096370;28;20536;-73
2022/01/07 07:39:19;;;;;;;3.53;3.20;;;3.20;1.00;;;;;;5100756;28;20441;-73
2022/01/07 07:41:48;;;;;;;1.30;1.20;;;3.10;1.00;;;;;;5091690;28;20867;-73
2022/01/07 07:44:16;;;;;;;0.50;0.30;;;3.10;1.00;;;;;;5091375;28;20454;-74
2022/01/07 07:46:46;;;;;;;0.90;0.47;;;3.20;1.00;;;;;;5091640;28;20450;-73
2022/01/07 07:49:14;;;;;;;0.60;0.33;;;3.20;1.00;;;;;;5101990;28;20531;-72
2022/01/07 07:51:43;;;;;;;0.50;0.10;;;3.30;1.00;;;;;;5104768;28;20468;-75
2022/01/07 07:54:11;;;;;;;1.43;1.33;;;3.30;1.00;;;;;;5110122;28;20453;-74
2022/01/07 07:56:39;;;;;;;6.00;1.80;;;3.30;1.00;;;;;;5115645;28;20578;-73
2022/01/07 07:59:07;;;;;;;0.80;0.50;;;3.30;1.00;;;;;;5115650;28;20446;-73
2022/01/07 08:01:36;;;;;;;0.50;0.20;;;3.30;1.00;;;;;;5101147;28;20480;-73
2022/01/07 08:04:07;;;;;;;0.50;0.10;;;3.20;1.00;;;;;;5096020;28;20445;-73
2022/01/07 08:06:35;;;;;;;0.60;0.47;;;3.20;1.00;;;;;;5094691;28;20535;-74
2022/01/07 08:09:03;;;;;;;5.30;5.03;;;3.20;1.00;;;;;;5094761;28;20445;-74
2022/01/07 08:11:37;;;;;;;0.50;0.10;;;;;;;;;;5094540;28;20482;-74
2022/01/07 08:16:51;;;;;;;0.50;0.20;;;3.30;1.00;;;;;;5099254;28;20509;-74
2022/01/07 08:19:20;;;;;;;0.50;0.10;;;3.20;1.00;;;;;;5096061;28;20446;-73
2022/01/07 08:21:48;;;;;;;0.60;0.30;;;;;;;;;;5098028;28;20547;-73
2022/01/07 08:24:17;;;;;;;0.50;0.10;;;;;;;;;;5094732;28;20440;-73
2022/01/07 08:26:48;;;;;;;1.47;1.37;;;3.10;1.00;;;;;;5115404;28;20444;-73
2022/01/07 08:29:16;;;;;;;1.33;0.97;;;3.10;1.00;;;;;;5111626;28;20799;-72
2022/01/07 08:37:17;;;;;;;0.70;0.50;;;2.60;1.00;;;;;;5094737;28;20446;-72
2022/01/07 08:39:44;;;;;;;0.50;0.10;;;3.00;1.00;;;;;;5102829;28;20529;-74
2022/01/07 08:42:12;;;;;;;0.50;0.10;;;3.00;1.00;;;;;;5101491;28;20484;-72
2022/01/07 08:44:40;;;;;;;0.80;0.50;;;3.00;1.00;;;;;;5094960;28;20451;-74
2022/01/07 08:47:08;;;;;;;0.50;0.17;;;3.00;1.00;;;;;;5094890;28;20451;-73
2022/01/07 08:49:38;;;;;;;0.50;0.20;;;3.00;1.00;;;;;;5094313;28;20935;-72
2022/01/07 08:52:06;;;;;;;1.43;1.13;;;3.00;1.00;;;;;;5106538;28;20465;-72
2022/01/07 08:54:34;;;;;;;2.00;1.00;;;3.00;1.00;;;;;;5108656;28;20948;-71
2022/01/07 08:57:02;;;;;;;3.17;1.27;;;3.20;1.00;;;;;;5094585;28;20519;-72
2022/01/07 08:59:30;;;;;;;0.50;0.10;;;3.20;1.00;;;;;;5094402;28;20449;-73
2022/01/07 09:01:59;;;;;;;0.50;0.30;;;;;;;;;;5091082;28;20526;-73
2022/01/07 09:04:27;;;;;;;0.53;0.27;;;3.20;1.00;;;;;;5093675;28;20480;-72
2022/01/07 09:06:56;;;;;;;0.50;0.20;;;3.20;1.00;;;;;;5088980;28;20461;-72
2022/01/07 09:09:24;;;;;;;0.70;0.30;;;3.30;1.00;;;;;;5093698;28;20442;-74
2022/01/07 09:11:52;;;;;;;0.50;0.10;;;3.40;1.00;;;;;;5094837;28;20469;-75
2022/01/07 09:14:20;;;;;;;1.90;1.80;;;3.30;1.00;;;;;;5081966;28;20465;-72
2022/01/07 09:16:48;;;;;;;0.50;0.20;;;3.30;1.00;;;;;;5093822;28;20624;-72
2022/01/07 09:19:16;;;;;;;0.50;0.10;;;3.20;1.00;;;;;;5093698;28;20772;-73
2022/01/07 09:21:44;;;;;;;0.80;0.50;;;3.20;1.00;;;;;;5093880;28;20480;-72
2022/01/07 09:24:13;;;;;;;0.50;0.10;;;;;;;;;;5094903;28;20716;-71
2022/01/07 09:26:41;;;;;;;1.63;0.67;;;3.20;1.00;;;;;;5093985;28;20536;-72
2022/01/07 09:29:09;;;;;;;1.23;0.47;;;3.10;1.00;;;;;;5093753;28;20447;-72
2022/01/07 09:31:38;;;;;;;0.50;0.20;;;3.10;1.00;;;;;;5113054;22;20589;-74
2022/01/07 09:34:06;;;;;;;0.50;0.10;;;3.10;1.00;;;;;;5114781;28;20444;-72
2022/01/07 09:36:54;;;;;;;0.50;0.10;;;3.10;1.00;;;;;;5113904;28;20437;-74
2022/01/07 09:39:23;;;;;;;0.83;0.20;;;3.10;1.00;;;;;;5105599;28;20445;-74
2022/01/07 09:41:51;;;;;;;0.70;0.50;;;3.10;1.00;;;;;;5113899;28;20879;-74
2022/01/07 09:44:19;;;;;;;0.50;0.10;;;3.10;1.00;;;;;;5105272;28;20440;-73
2022/01/07 09:46:47;;;;;;;13.90;1.20;;;3.10;1.00;;;;;;5096091;28;20947;-74
2022/01/07 09:49:15;;;;;;;1.30;0.73;;;3.00;1.00;;;;;;5098123;28;21143;-75
2022/01/07 09:51:44;;;;;;;0.70;0.23;;;3.00;1.00;;;;;;5094977;28;20774;-74
2022/01/07 09:54:12;;;;;;;0.50;0.10;;;2.90;1.00;;;;;;5099829;28;20811;-74
2022/01/07 09:56:41;;;;;;;1.00;0.63;;;2.80;1.00;;;;;;5071682;28;20474;-75
2022/01/07 09:59:09;;;;;;;2.10;0.80;;;2.80;1.00;;;;;;5066429;28;20454;-72
2022/01/07 10:01:57;;;;;;;0.57;0.30;;;2.80;1.00;;;;;;5071563;28;20998;-74
2022/01/07 10:04:27;;;;;;;0.67;0.67;;;2.80;1.00;;;;;;5062247;28;20516;-73
2022/01/07 10:07:11;;;;;;;0.70;0.40;;;2.90;1.00;;;;;;5069876;28;20452;-75
2022/01/07 10:09:40;;;;;;;1.07;0.97;;;2.90;1.00;;;;;;5074914;28;20502;-73
2022/01/07 10:12:10;;;;;;;2.40;1.53;;;3.00;1.00;;;;;;5070414;28;20472;-74
2022/01/07 10:14:38;;;;;;;0.50;0.10;;;3.00;1.00;;;;;;5070826;28;20461;-74
2022/01/07 10:17:06;;;;;;;0.50;0.10;;;2.90;1.00;;;;;;5073008;28;20430;-71
2022/01/07 10:19:36;;;;;;;0.60;0.30;;;3.00;1.00;;;;;;5077948;28;20436;-72
2022/01/07 10:22:07;;;;;;;0.90;0.40;;;3.00;1.00;;;;;;5069623;28;21040;-74
2022/01/07 10:24:54;;;;;;;1.23;0.43;;;3.00;1.00;;;;;;5065670;28;20480;-74
2022/01/07 10:27:24;;;;;;;1.00;0.83;;;4.00;1.00;;;;;;5068942;28;20446;-74
2022/01/07 10:29:52;;;;;;;2.30;2.23;;;2.80;1.00;;;;;;5063409;28;20441;-74
2022/01/07 10:32:26;;;;;;;0.60;0.43;;;2.80;1.00;;;;;;5071467;28;20474;-75
2022/01/07 10:35:13;;;;;;;0.50;0.10;;;2.90;1.00;;;;;;5062803;28;20438;-72
2022/01/07 10:37:54;;;;;;;0.50;0.20;;;2.80;1.00;;;;;;5055412;28;20442;-74
2022/01/07 10:40:24;;;;;;;3.00;2.70;;;2.80;1.00;;;;;;5055837;28;20438;-74
2022/01/07 10:42:55;;;;;;;0.50;0.10;;;2.90;1.00;;;;;;5065077;28;20498;-73
2022/01/07 10:45:24;;;;;;;5.50;3.03;;;2.80;1.00;;;;;;5072608;28;20828;-74
2022/01/07 10:47:53;;;;;;;0.50;0.20;;;2.90;1.00;;;;;;5070989;28;20442;-74
2022/01/07 10:50:24;;;;;;;4.33;2.40;;;2.90;1.00;;;;;;5071613;28;20437;-75
2022/01/07 10:52:53;;;;;;;0.50;0.10;;;2.90;1.00;;;;;;5070835;28;20593;-71
2022/01/07 10:55:22;;;;;;;1.27;0.93;;;2.90;1.00;;;;;;5063672;28;20459;-75
2022/01/07 10:57:51;;;;;;;0.73;0.57;;;2.90;1.00;;;;;;5071810;28;20457;-74
2022/01/07 11:00:22;;;;;;;1.30;1.20;;;2.90;1.00;;;;;;5071779;28;20448;-75
2022/01/07 11:02:50;;;;;;;1.60;1.50;;;2.90;1.00;;;;;;5071342;28;20484;-74
2022/01/07 11:05:18;;;;;;;0.50;0.10;;;2.90;1.00;;;;;;5070989;28;20912;-74
2022/01/07 11:07:46;;;;;;;0.50;0.10;;;2.90;1.00;;;;;;5071938;28;20444;-75
2022/01/07 11:10:14;;;;;;;6.00;1.17;;;3.00;1.00;;;;;;5071738;28;20966;-74
2022/01/07 11:12:42;;;;;;;0.50;0.10;;;3.10;1.00;;;;;;5074706;28;20583;-77
2022/01/07 11:15:10;;;;;;;0.50;0.10;;;3.10;1.00;;;;;;5073105;28;20450;-76
2022/01/07 11:17:42;;;;;;;0.50;0.10;;;3.10;1.00;;;;;;5072287;28;20834;-74
2022/01/07 11:20:14;;;;;;;0.50;0.10;;;3.20;1.00;;;;;;5065922;28;20568;-73
2022/01/07 11:22:46;;;;;;;0.60;0.30;;;3.20;1.00;;;;;;5074443;28;20807;-72
2022/01/07 11:25:15;;;;;;;0.50;0.10;;;3.20;1.00;;;;;;5074403;28;20434;-73
2022/01/07 11:27:51;;;;;;;1.20;1.07;;;3.30;1.00;;;;;;5075576;28;20452;-76
2022/01/07 11:30:22;;;;;;;0.50;0.20;;;3.30;1.00;;;;;;5075306;28;20801;-74
2022/01/07 11:32:52;;;;;;;0.50;0.20;;;3.30;1.00;;;;;;5075767;28;20508;-73
2022/01/07 11:35:48;;;;;;;0.50;0.10;;;3.30;1.00;;;;;;5079036;28;20441;-76
2022/01/07 11:38:36;;;;;;;0.50;0.10;;;3.40;1.00;;;;;;5077000;28;20445;-74
2022/01/07 11:41:13;;;;;;;0.60;0.40;;;3.40;1.00;;;;;;5055659;28;20959;-72
2022/01/07 11:43:44;;;;;;;0.50;0.20;;;3.40;1.00;;;;;;5072309;28;20508;-73
2022/01/07 11:46:27;;;;;;;0.90;0.77;;;3.40;1.00;;;;;;5073473;28;20920;-73
2022/01/07 11:48:59;;;;;;;0.50;0.10;;;3.50;1.00;;;;;;5075378;28;20433;-73
2022/01/07 11:51:40;;;;;;;0.90;0.50;;;3.50;1.00;;;;;;5075043;28;20981;-72
2022/01/07 11:54:11;;;;;;;0.50;0.20;;;3.50;1.00;;;;;;5075176;28;20673;-73
2022/01/07 11:56:43;;;;;;;1.07;0.97;;;3.50;1.00;;;;;;5075172;28;20486;-75
2022/01/07 11:59:29;;;;;;;0.50;0.10;;;3.40;1.00;;;;;;5075057;28;20552;-73
2022/01/07 12:02:04;;;;;;;0.50;0.30;;;3.50;1.00;;;;;;5075193;28;20459;-74
2022/01/07 12:04:35;;;;;;;0.50;0.17;;;3.50;1.00;;;;;;5079535;28;20583;-73
2022/01/07 12:07:07;;;;;;;0.50;0.10;;;3.60;1.00;;;;;;5079729;28;20443;-72
2022/01/07 12:09:37;;;;;;;4.00;1.27;;;3.60;1.00;;;;;;5079669;28;20513;-73
2022/01/07 12:12:10;;;;;;;0.50;0.10;;;3.60;1.00;;;;;;5071837;28;20600;-73
2022/01/07 12:14:41;;;;;;;1.53;1.07;;;3.50;1.00;;;;;;5074470;28;20439;-73
2022/01/07 12:17:13;;;;;;;0.83;0.50;;;3.60;1.00;;;;;;5080537;28;20481;-74
2022/01/07 12:20:46;;;;;;;2.30;1.20;;;3.50;1.00;;;;;;5072643;28;20762;-74
2022/01/07 12:23:20;;;;;;;0.50;0.30;;;3.50;1.00;;;;;;5071919;28;20983;-74
2022/01/07 12:25:50;;;;;;;0.50;0.20;;;3.50;1.00;;;;;;5076638;28;20447;-74
2022/01/07 12:28:18;;;;;;;0.50;0.30;;;3.50;1.00;;;;;;5075141;28;20451;-75
2022/01/07 12:30:49;;;;;;;2.70;2.53;;;3.70;1.00;;;;;;5074563;28;20449;-73
2022/01/07 12:33:17;;;;;;;0.70;0.50;;;3.70;1.00;;;;;;5074529;28;20504;-73
2022/01/07 12:35:46;;;;;;;0.80;0.80;;;3.70;1.00;;;;;;5073356;28;20535;-73
2022/01/07 12:38:17;;;;;;;6.03;1.83;;;3.70;1.00;;;;;;5074415;28;20443;-74
2022/01/07 12:40:53;;;;;;;2.00;1.80;;;3.70;1.00;;;;;;5074510;28;20444;-73
2022/01/07 12:43:22;;;;;;;0.70;0.57;;;3.70;1.00;;;;;;5074110;28;20465;-74
2022/01/07 12:45:58;;;;;;;0.50;0.30;;;3.70;1.00;;;;;;5077118;28;20446;-73
2022/01/07 12:48:34;;;;;;;0.50;0.10;;;3.80;1.00;;;;;;5071144;28;20454;-74
2022/01/07 12:51:05;;;;;;;0.50;0.20;;;3.90;1.00;;;;;;5074045;28;20435;-74
2022/01/07 12:53:34;;;;;;;1.50;1.40;;;3.90;1.00;;;;;;5074553;28;20439;-74
2022/01/07 12:56:29;;;;;;;0.50;0.10;;;3.80;1.00;;;;;;5074211;28;20438;-74
2022/01/07 12:58:58;;;;;;;0.50;0.10;;;3.90;1.00;;;;;;5028001;28;20448;-76
2022/01/07 13:01:29;;;;;;;1.23;1.07;;;4.00;1.00;;;;;;5073259;28;20858;-74
2022/01/07 13:04:08;;;;;;;0.70;0.47;;;4.10;1.00;;;;;;5075814;28;20522;-75
2022/01/07 13:06:42;;;;;;;0.50;0.13;;;4.10;1.00;;;;;;5074675;28;20529;-75
2022/01/07 13:09:11;;;;;;;0.50;0.20;;;4.00;1.00;;;;;;5072809;28;20457;-74
2022/01/07 13:11:49;;;;;;;0.50;0.10;;;3.90;1.00;;;;;;5071158;28;20460;-74
2022/01/07 13:14:18;;;;;;;0.50;0.20;;;3.90;1.00;;;;;;5068372;28;20542;-74
2022/01/07 13:16:50;;;;;;;0.50;0.20;;;3.90;1.00;;;;;;5071016;28;20501;-75
2022/01/07 13:19:19;;;;;;;1.47;1.27;;;3.90;1.00;;;;;;5076524;28;20494;-74
2022/01/07 13:21:49;;;;;;;0.50;0.10;;;3.80;1.00;;;;;;5076459;28;20520;-74
2022/01/07 13:24:19;;;;;;;2.50;1.50;;;3.80;1.00;;;;;;5075747;28;20558;-75
2022/01/07 13:26:55;;;;;;;2.77;2.57;;;3.80;1.00;;;;;;5074004;28;20444;-76
2022/01/07 13:29:25;;;;;;;2.50;1.60;;;3.70;1.00;;;;;;5072231;28;20450;-74
2022/01/07 13:31:59;;;;;;;1.43;0.70;;;3.70;1.00;;;;;;5070602;28;20478;-73
2022/01/07 13:34:28;;;;;;;1.37;0.63;;;3.80;1.00;;;;;;5075234;28;20796;-73
2022/01/07 13:37:05;;;;;;;1.03;0.77;;;3.90;1.00;;;;;;5079542;28;20448;-75
2022/01/07 13:39:40;;;;;;;0.90;0.50;;;3.80;1.00;;;;;;5079517;28;20443;-74